Terminal Aerodrome Forecast
Issued by NWS

Home | Current Version | Previous Version | Text Only | Print | Product List | Glossary Off
Versions: 1 2 3 4 5 6 7 8 9 10 11 12 13

000
FTUS43 KOAX 071100 RRA
TAFCDR
TAF
KCDR 071141Z 0712/0812 27005KT P6SM SCT120
     FM072000 36013G22KT P6SM VCTS BKN060CB
     FM080000 33005KT P6SM SCT200=

USA.gov is the U.S. government's official web portal to all federal, state and local government web resources and services.